Time;durP1;ratioP1;P1;durP2;ratioP2;P2;SDS_P1;SDS_P2;PMS_P1;PMS_P2;Temp;Humidity;BMP_temperature;BMP_pressure;BME280_temperature;BME280_humidity;BME280_pressure;Samples;Min_cycle;Max_cycle;Signal;HPM_P1;HPM_P2
2023/01/01 00:00:24;;;;;;;24.88;14.07;;;15.40;99.90;;;;;;5090449;28;20085;-45
2023/01/01 00:02:49;;;;;;;27.50;13.52;;;15.40;99.90;;;;;;5089798;28;20024;-45
2023/01/01 00:05:15;;;;;;;26.95;13.25;;;15.40;99.90;;;;;;5082513;28;20447;-44
2023/01/01 00:07:40;;;;;;;26.15;14.68;;;15.40;99.90;;;;;;5089060;28;20142;-44
2023/01/01 00:12:52;;;;;;;26.25;13.45;;;15.50;99.90;;;;;;5089756;28;20046;-44
2023/01/01 00:15:18;;;;;;;18.63;11.88;;;15.40;99.90;;;;;;5089839;28;20020;-43
2023/01/01 00:17:44;;;;;;;26.88;11.50;;;15.30;99.90;;;;;;5090440;28;20085;-45
2023/01/01 00:20:10;;;;;;;18.45;11.43;;;15.30;99.90;;;;;;5071981;28;20077;-43
2023/01/01 00:22:35;;;;;;;18.25;9.80;;;15.40;99.90;;;;;;5089390;28;20343;-43
2023/01/01 00:25:01;;;;;;;20.92;9.95;;;15.40;99.90;;;;;;5090091;28;20389;-43
2023/01/01 00:27:26;;;;;;;21.27;9.35;;;15.40;99.90;;;;;;5071665;28;20470;-43
2023/01/01 00:29:52;;;;;;;20.58;8.82;;;15.40;99.90;;;;;;5089430;28;20036;-43
2023/01/01 00:32:17;;;;;;;14.30;8.00;;;15.40;99.90;;;;;;5089200;28;20036;-43
2023/01/01 00:34:42;;;;;;;14.73;6.65;;;15.40;99.90;;;;;;5086917;28;20493;-44
2023/01/01 00:37:08;;;;;;;16.35;7.40;;;15.30;99.90;;;;;;5084533;28;20123;-43
2023/01/01 00:39:33;;;;;;;26.30;7.03;;;15.30;99.90;;;;;;5089609;28;20032;-42
2023/01/01 00:41:59;;;;;;;13.45;7.10;;;15.40;99.90;;;;;;5089463;28;20469;-44
2023/01/01 00:44:24;;;;;;;20.88;6.80;;;15.40;99.90;;;;;;5089820;28;20020;-44
2023/01/01 00:46:50;;;;;;;13.25;5.60;;;15.40;99.90;;;;;;5089750;28;20020;-44
2023/01/01 00:49:15;;;;;;;8.85;5.45;;;15.40;99.90;;;;;;5088927;28;20028;-43
2023/01/01 00:51:41;;;;;;;9.77;5.43;;;15.40;99.90;;;;;;5089476;28;20047;-44
2023/01/01 00:54:06;;;;;;;15.88;5.07;;;15.40;99.90;;;;;;5089502;28;20051;-46
2023/01/01 00:56:32;;;;;;;14.40;4.82;;;15.40;99.90;;;;;;5089479;28;20023;-43
2023/01/01 00:58:58;;;;;;;13.73;5.47;;;15.40;99.90;;;;;;5089800;28;20016;-43
2023/01/01 01:01:23;;;;;;;14.40;4.93;;;15.50;99.90;;;;;;5089145;28;20051;-43
2023/01/01 01:03:49;;;;;;;14.55;4.65;;;15.60;99.90;;;;;;5088640;28;20506;-44
2023/01/01 01:06:16;;;;;;;16.38;5.05;;;15.60;99.90;;;;;;5080759;28;20046;-43
2023/01/01 01:08:44;;;;;;;19.58;5.20;;;15.70;99.90;;;;;;5071115;28;20028;-43
2023/01/01 01:11:13;;;;;;;17.55;4.90;;;15.70;99.90;;;;;;5071163;28;20062;-44
2023/01/01 01:13:41;;;;;;;10.83;4.97;;;15.70;99.90;;;;;;5088712;28;20016;-43
2023/01/01 01:16:08;;;;;;;15.27;4.95;;;15.70;99.90;;;;;;5089175;28;20438;-44
2023/01/01 01:18:34;;;;;;;12.30;4.07;;;15.70;99.90;;;;;;5089148;28;20024;-43
2023/01/01 01:20:59;;;;;;;13.60;4.28;;;15.60;99.90;;;;;;5071017;28;20035;-44
2023/01/01 01:23:25;;;;;;;11.07;4.85;;;15.60;99.90;;;;;;5088678;28;20036;-43
2023/01/01 01:25:51;;;;;;;10.50;4.35;;;15.70;99.90;;;;;;5089184;28;20028;-43
2023/01/01 01:28:16;;;;;;;11.65;4.25;;;15.60;99.90;;;;;;5088960;28;20417;-43
2023/01/01 01:30:42;;;;;;;13.35;4.28;;;15.70;99.90;;;;;;5089172;28;20024;-43
2023/01/01 01:33:08;;;;;;;9.52;3.75;;;15.60;99.90;;;;;;5088726;28;20568;-45
2023/01/01 01:35:33;;;;;;;15.75;5.07;;;15.60;99.90;;;;;;5080106;28;20028;-43
2023/01/01 01:37:59;;;;;;;13.88;4.38;;;15.70;99.90;;;;;;5088526;28;20101;-45
2023/01/01 01:40:25;;;;;;;11.90;5.22;;;15.70;99.90;;;;;;5088577;28;20583;-43
2023/01/01 01:42:50;;;;;;;12.20;4.40;;;15.70;99.90;;;;;;5069585;28;20074;-43
2023/01/01 01:45:17;;;;;;;11.23;4.63;;;15.70;99.90;;;;;;5088682;28;20028;-43
2023/01/01 01:47:55;;;;;;;15.15;4.18;;;15.60;99.90;;;;;;5088481;28;20024;-43
2023/01/01 01:50:39;;;;;;;9.15;3.88;;;15.50;99.90;;;;;;5088178;28;20020;-44
2023/01/01 01:53:15;;;;;;;20.45;4.63;;;15.50;99.90;;;;;;5087538;28;20028;-43
2023/01/01 01:55:49;;;;;;;7.10;3.53;;;15.50;99.90;;;;;;5088607;28;20016;-43
2023/01/01 01:58:16;;;;;;;17.60;4.40;;;15.60;99.90;;;;;;5070296;28;20024;-43
2023/01/01 02:00:41;;;;;;;13.95;4.60;;;15.50;99.90;;;;;;5089193;28;20028;-43
2023/01/01 02:03:10;;;;;;;10.07;4.18;;;15.60;99.90;;;;;;5090748;28;20107;-43
2023/01/01 02:05:37;;;;;;;12.77;4.75;;;15.60;99.90;;;;;;5057540;28;20036;-43
2023/01/01 02:08:04;;;;;;;13.77;4.25;;;15.60;99.90;;;;;;5071485;28;20052;-44
2023/01/01 02:10:30;;;;;;;7.85;4.05;;;15.50;99.90;;;;;;5071507;28;20021;-43
2023/01/01 02:12:55;;;;;;;15.85;4.50;;;15.60;99.90;;;;;;5070907;28;20063;-44
2023/01/01 02:15:27;;;;;;;12.85;3.70;;;15.70;99.90;;;;;;5074750;28;20068;-43
2023/01/01 02:18:22;;;;;;;13.77;4.15;;;15.60;99.90;;;;;;5071779;28;20036;-44
2023/01/01 02:21:00;;;;;;;12.60;3.90;;;15.60;99.80;;;;;;5075519;28;20028;-44
2023/01/01 02:23:58;;;;;;;13.18;4.32;;;15.60;99.90;;;;;;5081611;28;20024;-43
2023/01/01 02:26:57;;;;;;;11.65;3.90;;;15.60;99.70;;;;;;5080533;28;20026;-44
2023/01/01 02:29:37;;;;;;;16.50;5.38;;;15.60;99.70;;;;;;5082338;28;20028;-43
2023/01/01 02:32:14;;;;;;;13.75;4.38;;;15.60;99.90;;;;;;5079705;28;20096;-44
2023/01/01 02:34:45;;;;;;;13.38;4.78;;;15.60;99.60;;;;;;5079221;28;20031;-43
2023/01/01 02:37:13;;;;;;;11.45;3.75;;;15.60;99.90;;;;;;5080727;28;20028;-44
2023/01/01 02:39:49;;;;;;;11.40;4.43;;;15.60;99.70;;;;;;5080232;28;20107;-43
2023/01/01 02:42:15;;;;;;;11.52;4.25;;;15.40;99.90;;;;;;5080267;28;20032;-43
2023/01/01 02:44:44;;;;;;;9.48;4.20;;;15.40;99.90;;;;;;5074437;28;20025;-44
2023/01/01 02:47:14;;;;;;;13.07;3.78;;;15.30;99.90;;;;;;5071099;28;20538;-43
2023/01/01 02:49:49;;;;;;;;;;;15.30;99.90;;;;;;5071421;28;20124;-43
2023/01/01 02:52:39;;;;;;;11.25;4.20;;;15.20;99.90;;;;;;5070580;28;19915;-43
2023/01/01 02:55:25;;;;;;;10.77;4.65;;;15.30;99.90;;;;;;5071159;28;20081;-43
2023/01/01 03:01:26;;;;;;;13.95;4.63;;;15.40;99.80;;;;;;5064550;28;20402;-46
2023/01/01 03:04:20;;;;;;;10.80;5.13;;;15.40;99.90;;;;;;5075616;28;20024;-43
2023/01/01 03:07:16;;;;;;;16.65;4.97;;;15.30;99.90;;;;;;5063716;28;20028;-44
2023/01/01 03:09:58;;;;;;;11.20;5.13;;;15.30;99.90;;;;;;5091122;28;20035;-43
2023/01/01 03:12:49;;;;;;;11.55;5.43;;;15.30;99.80;;;;;;5088927;28;20035;-44
2023/01/01 03:15:32;;;;;;;16.10;5.82;;;15.30;99.80;;;;;;5091202;28;20024;-44
2023/01/01 03:18:14;;;;;;;12.25;4.65;;;15.30;99.90;;;;;;5090801;28;20073;-44
2023/01/01 03:20:45;;;;;;;11.10;5.10;;;15.30;99.80;;;;;;5090746;28;20023;-44
2023/01/01 03:23:21;;;;;;;16.15;5.93;;;15.30;99.80;;;;;;5071938;28;20032;-46
2023/01/01 03:25:51;;;;;;;13.25;5.03;;;15.30;99.50;;;;;;5090855;28;20023;-43
2023/01/01 03:28:21;;;;;;;12.75;5.30;;;15.30;99.70;;;;;;5090844;28;20378;-45
2023/01/01 03:30:49;;;;;;;13.38;5.65;;;15.20;99.80;;;;;;5090540;28;20020;-46
2023/01/01 03:33:22;;;;;;;11.80;4.68;;;15.20;99.60;;;;;;5071839;28;20391;-43
2023/01/01 03:35:52;;;;;;;15.23;5.53;;;15.30;99.20;;;;;;5078736;28;20024;-43
2023/01/01 03:38:34;;;;;;;14.38;4.65;;;15.30;99.00;;;;;;5070223;28;20025;-42
2023/01/01 03:41:14;;;;;;;18.15;5.45;;;15.30;99.40;;;;;;5070281;28;20029;-47
2023/01/01 03:43:55;;;;;;;11.43;4.67;;;15.20;99.20;;;;;;5051836;28;20491;-46
2023/01/01 03:46:26;;;;;;;8.75;3.58;;;15.20;99.40;;;;;;5050961;28;20016;-45
2023/01/01 03:48:59;;;;;;;;;;;15.10;99.50;;;;;;5070632;28;20557;-43
2023/01/01 03:51:52;;;;;;;13.27;4.18;;;15.10;99.50;;;;;;5070459;28;19904;-44
2023/01/01 03:54:18;;;;;;;12.30;5.20;;;15.20;99.00;;;;;;5070011;28;20017;-43
2023/01/01 03:56:51;;;;;;;7.22;3.92;;;15.30;99.10;;;;;;5070193;28;20024;-44
2023/01/01 03:59:38;;;;;;;8.45;4.18;;;15.20;99.00;;;;;;5070703;28;20028;-43
2023/01/01 04:02:07;;;;;;;17.65;5.47;;;15.20;99.00;;;;;;5069637;28;20047;-43
2023/01/01 04:04:34;;;;;;;14.07;5.17;;;15.20;98.90;;;;;;5081113;28;20386;-44
2023/01/01 04:07:00;;;;;;;9.88;4.53;;;15.20;98.80;;;;;;5076772;28;20032;-44
2023/01/01 04:09:30;;;;;;;15.23;4.78;;;15.10;98.90;;;;;;5069912;28;20028;-43
2023/01/01 04:12:00;;;;;;;9.82;4.88;;;15.10;99.00;;;;;;5069452;28;20160;-43
2023/01/01 04:14:27;;;;;;;16.52;4.28;;;15.10;98.90;;;;;;5052169;28;20033;-43
2023/01/01 04:16:53;;;;;;;15.05;4.38;;;15.10;98.80;;;;;;5052027;28;20025;-43
2023/01/01 04:19:19;;;;;;;10.40;3.97;;;15.00;98.90;;;;;;5069746;28;20035;-43
2023/01/01 04:21:44;;;;;;;13.15;4.95;;;15.00;99.10;;;;;;5069506;28;20025;-43
2023/01/01 04:24:10;;;;;;;17.13;5.18;;;15.00;99.10;;;;;;5068635;28;20521;-43
2023/01/01 04:26:36;;;;;;;16.08;5.63;;;15.00;98.90;;;;;;5069863;28;20082;-43
2023/01/01 04:29:01;;;;;;;9.38;4.68;;;14.90;99.00;;;;;;5051608;28;20025;-46
2023/01/01 04:31:27;;;;;;;9.38;4.35;;;14.90;99.20;;;;;;5051735;28;20016;-45
2023/01/01 04:33:53;;;;;;;10.13;4.30;;;14.80;99.20;;;;;;5074539;28;20466;-43
2023/01/01 04:36:18;;;;;;;13.50;4.70;;;14.80;98.90;;;;;;5081773;28;20024;-44
2023/01/01 04:38:44;;;;;;;10.40;4.60;;;14.70;99.20;;;;;;5089527;28;20028;-43
2023/01/01 04:41:09;;;;;;;9.43;5.18;;;14.70;99.00;;;;;;5089756;28;20517;-43
2023/01/01 04:43:35;;;;;;;12.35;4.90;;;14.70;99.20;;;;;;5089209;28;20062;-47
2023/01/01 04:46:02;;;;;;;18.17;4.97;;;14.60;99.30;;;;;;5089629;28;20073;-44
2023/01/01 04:48:29;;;;;;;9.25;5.18;;;14.60;99.40;;;;;;5089605;28;20031;-44
2023/01/01 04:50:59;;;;;;;9.75;4.60;;;14.60;99.10;;;;;;5089763;28;20078;-44
2023/01/01 04:53:28;;;;;;;8.57;4.57;;;14.60;99.30;;;;;;5088830;28;20028;-45
2023/01/01 04:55:54;;;;;;;9.63;4.75;;;14.60;99.10;;;;;;5089689;28;20104;-43
2023/01/01 04:58:19;;;;;;;14.45;5.47;;;14.60;99.20;;;;;;5089467;28;20115;-43
2023/01/01 05:00:49;;;;;;;17.67;4.97;;;14.60;99.10;;;;;;5089547;28;20059;-43
2023/01/01 05:03:15;;;;;;;9.27;4.07;;;14.50;99.20;;;;;;5088899;28;20020;-43
2023/01/01 05:05:41;;;;;;;7.70;4.10;;;14.50;99.20;;;;;;5079365;28;20415;-46
2023/01/01 05:08:07;;;;;;;15.07;4.68;;;14.50;99.30;;;;;;5071024;28;20084;-46
2023/01/01 05:10:32;;;;;;;9.60;5.32;;;14.40;99.50;;;;;;5089214;28;20028;-44
2023/01/01 05:12:58;;;;;;;9.57;4.88;;;14.50;99.10;;;;;;5088929;28;20493;-43
2023/01/01 05:15:26;;;;;;;10.43;4.68;;;14.40;99.20;;;;;;5089211;28;20023;-43
2023/01/01 05:17:53;;;;;;;11.98;4.68;;;14.40;99.30;;;;;;5089645;28;20020;-44
2023/01/01 05:20:19;;;;;;;9.15;4.38;;;14.40;99.30;;;;;;5089137;28;20127;-45
2023/01/01 05:22:45;;;;;;;10.00;4.25;;;14.40;99.40;;;;;;5070406;28;20028;-44
2023/01/01 05:25:11;;;;;;;11.88;5.13;;;14.30;99.50;;;;;;5089102;28;20178;-44
2023/01/01 05:27:36;;;;;;;10.25;4.80;;;14.30;99.40;;;;;;5089094;28;20537;-43
2023/01/01 05:30:02;;;;;;;12.50;5.03;;;14.30;99.30;;;;;;5089170;28;20028;-44
2023/01/01 05:32:28;;;;;;;13.63;4.75;;;14.30;99.40;;;;;;5070799;28;20067;-43
2023/01/01 05:34:55;;;;;;;16.70;5.30;;;14.30;99.20;;;;;;5085772;28;20091;-43
2023/01/01 05:37:20;;;;;;;12.48;5.00;;;14.30;99.30;;;;;;5089517;28;20028;-43
2023/01/01 05:39:47;;;;;;;10.75;5.30;;;14.30;99.30;;;;;;5093346;28;20020;-44
2023/01/01 05:42:14;;;;;;;10.55;4.97;;;14.30;99.40;;;;;;5092846;28;20036;-46
2023/01/01 05:44:40;;;;;;;6.63;4.80;;;14.20;99.60;;;;;;5093526;28;20027;-43
2023/01/01 05:47:05;;;;;;;17.67;5.15;;;14.20;99.30;;;;;;5093428;28;20024;-44
2023/01/01 05:49:31;;;;;;;12.55;5.78;;;14.30;99.10;;;;;;5093313;28;20035;-43
2023/01/01 05:51:56;;;;;;;14.10;6.10;;;14.30;99.20;;;;;;5092965;28;20020;-45
2023/01/01 05:54:22;;;;;;;11.20;5.43;;;14.30;99.30;;;;;;5075104;28;20043;-43
2023/01/01 05:56:48;;;;;;;8.85;5.55;;;14.30;99.40;;;;;;5093121;28;20093;-43
2023/01/01 05:59:13;;;;;;;11.20;5.47;;;14.30;99.10;;;;;;5093013;28;20020;-43
2023/01/01 06:01:39;;;;;;;12.02;6.63;;;14.30;99.20;;;;;;5092715;28;20531;-44
2023/01/01 06:04:04;;;;;;;14.32;5.45;;;14.30;99.00;;;;;;5073996;28;20023;-43
2023/01/01 06:06:32;;;;;;;11.63;5.25;;;14.30;99.30;;;;;;5083937;28;20016;-45
2023/01/01 06:08:59;;;;;;;8.85;5.15;;;14.40;99.10;;;;;;5092255;28;20021;-44
2023/01/01 06:11:26;;;;;;;10.45;5.45;;;14.50;98.90;;;;;;5092299;28;20038;-44
2023/01/01 06:13:53;;;;;;;12.25;5.65;;;14.50;99.00;;;;;;5091942;28;20040;-44
2023/01/01 06:16:19;;;;;;;12.43;5.80;;;14.40;99.10;;;;;;5092420;28;20031;-45
2023/01/01 06:18:44;;;;;;;9.68;5.35;;;14.50;99.10;;;;;;5092099;28;20111;-44
2023/01/01 06:21:13;;;;;;;8.73;5.50;;;14.40;98.90;;;;;;5092416;28;20109;-44
2023/01/01 06:23:39;;;;;;;11.23;6.28;;;14.40;99.10;;;;;;5091648;28;20512;-44
2023/01/01 06:26:15;;;;;;;10.77;5.57;;;14.50;99.10;;;;;;5092304;28;20024;-43
2023/01/01 06:28:41;;;;;;;12.10;5.80;;;14.50;99.20;;;;;;5091988;28;20024;-45
2023/01/01 06:31:09;;;;;;;12.95;6.18;;;14.40;99.30;;;;;;5091726;28;20513;-44
2023/01/01 06:33:35;;;;;;;10.95;5.72;;;14.40;99.20;;;;;;5091180;28;20089;-44
2023/01/01 06:36:03;;;;;;;9.85;5.88;;;14.40;99.10;;;;;;5083627;28;20028;-44
2023/01/01 06:38:33;;;;;;;12.38;5.40;;;14.40;99.20;;;;;;5091665;28;20032;-43
2023/01/01 06:41:01;;;;;;;20.30;6.05;;;14.40;99.40;;;;;;5090304;28;20517;-44
2023/01/01 06:43:28;;;;;;;9.70;4.63;;;14.40;99.30;;;;;;5080995;28;20013;-43
2023/01/01 06:46:20;;;;;;;10.73;5.75;;;14.40;99.30;;;;;;5061475;28;20016;-44
2023/01/01 06:48:47;;;;;;;13.25;6.75;;;14.50;99.30;;;;;;5081602;28;20093;-43
2023/01/01 06:51:15;;;;;;;10.93;5.13;;;14.50;99.20;;;;;;5082297;28;20016;-44
2023/01/01 06:53:41;;;;;;;14.20;6.32;;;14.50;99.10;;;;;;5080103;28;20059;-43
2023/01/01 06:56:08;;;;;;;11.10;6.13;;;14.50;99.30;;;;;;5088691;28;20053;-43
2023/01/01 06:58:34;;;;;;;11.07;5.90;;;14.40;99.30;;;;;;5091952;28;20085;-43
2023/01/01 07:01:22;;;;;;;12.57;6.03;;;14.40;99.50;;;;;;5073584;28;20428;-44
2023/01/01 07:03:55;;;;;;;12.75;5.63;;;14.50;99.20;;;;;;5091091;28;20144;-43
2023/01/01 07:06:22;;;;;;;8.50;5.53;;;14.40;99.20;;;;;;5083217;28;20228;-43
2023/01/01 07:08:48;;;;;;;13.02;6.80;;;14.30;99.50;;;;;;5091546;28;20038;-44
2023/01/01 07:11:14;;;;;;;16.60;6.25;;;14.30;99.60;;;;;;5091584;28;20032;-44
2023/01/01 07:13:40;;;;;;;11.45;6.03;;;14.30;99.70;;;;;;5091192;28;20369;-43
2023/01/01 07:16:06;;;;;;;14.98;6.60;;;14.30;99.70;;;;;;5091641;28;20038;-43
2023/01/01 07:18:31;;;;;;;12.70;6.25;;;14.20;99.80;;;;;;5091495;28;20036;-44
2023/01/01 07:21:03;;;;;;;10.13;5.85;;;14.10;99.90;;;;;;5091697;28;20032;-43
2023/01/01 07:23:30;;;;;;;14.02;5.70;;;14.10;99.90;;;;;;5090805;28;20085;-44
2023/01/01 07:25:56;;;;;;;12.23;6.15;;;14.10;99.90;;;;;;5073459;28;20031;-43
2023/01/01 07:28:22;;;;;;;20.23;6.00;;;14.10;99.90;;;;;;5091118;28;20449;-43
2023/01/01 07:30:48;;;;;;;16.23;5.45;;;14.10;99.90;;;;;;5091412;28;20301;-44
2023/01/01 07:33:16;;;;;;;17.73;6.20;;;14.20;99.90;;;;;;5090494;28;20387;-44
2023/01/01 07:35:43;;;;;;;13.25;5.50;;;14.20;99.90;;;;;;5087166;28;20513;-43
2023/01/01 07:38:09;;;;;;;12.30;6.40;;;14.20;99.90;;;;;;5070620;28;20071;-43
2023/01/01 07:40:35;;;;;;;12.52;5.53;;;14.10;99.90;;;;;;5070917;28;20446;-44
2023/01/01 07:43:00;;;;;;;11.13;5.63;;;14.20;99.90;;;;;;5070550;28;20024;-43
2023/01/01 07:45:26;;;;;;;17.40;6.82;;;14.10;99.90;;;;;;5070713;28;20494;-47
2023/01/01 07:47:54;;;;;;;9.13;5.32;;;14.10;99.90;;;;;;5070808;28;20021;-43
2023/01/01 07:50:21;;;;;;;11.07;6.47;;;14.10;99.90;;;;;;5070408;28;20024;-44
2023/01/01 07:52:46;;;;;;;14.52;5.47;;;14.10;99.90;;;;;;5070054;28;20083;-44
2023/01/01 07:55:17;;;;;;;10.88;6.10;;;14.20;99.90;;;;;;5070273;28;20068;-43
2023/01/01 07:57:43;;;;;;;12.98;7.28;;;14.30;99.90;;;;;;5070235;28;20160;-43
2023/01/01 08:00:12;;;;;;;10.57;5.75;;;14.30;99.90;;;;;;5070287;28;20033;-44
2023/01/01 08:02:38;;;;;;;13.63;6.05;;;14.40;99.90;;;;;;5069632;28;20660;-43
2023/01/01 08:05:04;;;;;;;10.77;5.53;;;14.40;99.90;;;;;;5079324;28;20016;-43
2023/01/01 08:07:30;;;;;;;10.05;5.50;;;14.40;99.90;;;;;;5087792;28;20473;-44
2023/01/01 08:09:56;;;;;;;10.13;5.50;;;14.40;99.90;;;;;;5069992;28;20097;-43
2023/01/01 08:12:21;;;;;;;13.65;5.63;;;14.40;99.90;;;;;;5084142;28;20332;-48
2023/01/01 08:14:47;;;;;;;14.45;6.45;;;14.40;99.90;;;;;;5082326;28;20025;-43
2023/01/01 08:17:12;;;;;;;9.60;5.72;;;14.40;99.90;;;;;;5069441;28;20375;-47
2023/01/01 08:19:38;;;;;;;13.50;5.32;;;14.40;99.90;;;;;;5070575;28;20036;-50
2023/01/01 08:22:03;;;;;;;10.80;6.05;;;14.40;99.90;;;;;;5080271;28;20020;-47
2023/01/01 08:24:29;;;;;;;12.48;6.38;;;14.40;99.90;;;;;;5072414;28;20043;-47
2023/01/01 08:26:54;;;;;;;10.55;6.03;;;14.50;99.90;;;;;;5051702;28;20475;-47
2023/01/01 08:29:20;;;;;;;10.27;5.65;;;14.50;99.90;;;;;;5069648;28;20391;-46
2023/01/01 08:31:46;;;;;;;9.57;5.65;;;14.50;99.90;;;;;;5068761;28;20024;-46
2023/01/01 08:34:12;;;;;;;7.95;5.88;;;14.50;99.90;;;;;;5077392;28;20034;-47
2023/01/01 08:36:39;;;;;;;9.82;5.45;;;14.50;99.90;;;;;;5063468;28;20035;-47
2023/01/01 08:39:05;;;;;;;11.52;5.68;;;14.60;99.90;;;;;;5089242;28;20627;-47
2023/01/01 08:41:31;;;;;;;9.52;5.93;;;14.60;99.90;;;;;;5078620;28;20568;-47
2023/01/01 08:43:56;;;;;;;13.43;6.15;;;14.60;99.90;;;;;;5068825;28;20035;-47
2023/01/01 08:46:22;;;;;;;9.27;5.22;;;14.60;99.90;;;;;;5076911;28;20107;-47
2023/01/01 08:48:48;;;;;;;13.45;5.78;;;14.60;99.90;;;;;;5069290;28;20083;-47
2023/01/01 08:51:14;;;;;;;13.60;5.50;;;14.70;99.90;;;;;;5057714;28;20546;-47
2023/01/01 08:53:40;;;;;;;12.73;5.95;;;14.80;99.90;;;;;;5073225;28;20074;-47
2023/01/01 08:56:10;;;;;;;13.48;5.28;;;14.70;99.90;;;;;;5079216;28;20559;-46
2023/01/01 08:58:38;;;;;;;11.52;5.60;;;14.90;99.90;;;;;;5089301;28;20035;-46
2023/01/01 09:01:04;;;;;;;12.13;5.75;;;15.00;99.90;;;;;;5088675;28;20031;-45
2023/01/01 09:03:30;;;;;;;12.38;5.57;;;14.90;99.90;;;;;;5089106;28;20534;-46
2023/01/01 09:05:56;;;;;;;9.85;5.65;;;15.00;99.90;;;;;;5080561;28;20053;-47
2023/01/01 09:08:22;;;;;;;10.88;5.30;;;15.00;99.90;;;;;;5071163;28;20039;-48
2023/01/01 09:10:48;;;;;;;9.13;5.15;;;14.90;99.90;;;;;;5075537;28;20024;-46
2023/01/01 09:13:16;;;;;;;8.35;4.93;;;14.80;99.90;;;;;;5068532;28;20556;-48
2023/01/01 09:15:42;;;;;;;8.45;5.38;;;14.90;99.90;;;;;;5068235;28;20490;-46
2023/01/01 09:18:08;;;;;;;9.30;5.32;;;14.90;99.90;;;;;;5069232;28;20028;-47
2023/01/01 09:20:34;;;;;;;8.88;5.20;;;14.90;99.90;;;;;;5069922;28;20552;-46
2023/01/01 09:23:00;;;;;;;7.93;4.60;;;15.00;99.90;;;;;;5068216;28;20060;-42
2023/01/01 09:25:25;;;;;;;8.02;4.25;;;15.00;99.90;;;;;;5074220;28;20108;-42
2023/01/01 09:28:02;;;;;;;7.80;4.00;;;15.00;99.90;;;;;;5067896;28;20341;-43
2023/01/01 09:30:29;;;;;;;7.47;4.05;;;15.00;99.90;;;;;;5068838;28;20028;-43
2023/01/01 09:32:54;;;;;;;7.93;4.40;;;15.00;99.90;;;;;;5068094;28;20027;-42
2023/01/01 09:35:20;;;;;;;8.45;4.30;;;15.10;99.90;;;;;;5083240;28;20028;-43
2023/01/01 09:37:46;;;;;;;9.07;4.18;;;15.10;99.70;;;;;;5068377;28;20021;-42
2023/01/01 09:40:23;;;;;;;6.22;4.18;;;15.10;99.90;;;;;;5068891;28;20394;-42
2023/01/01 09:42:52;;;;;;;7.13;3.95;;;15.10;99.90;;;;;;5068165;28;20587;-44
2023/01/01 09:45:21;;;;;;;7.68;4.28;;;15.00;99.90;;;;;;5068593;28;20048;-44
2023/01/01 09:47:52;;;;;;;8.68;4.20;;;15.00;99.90;;;;;;5068818;28;20368;-44
2023/01/01 09:50:26;;;;;;;11.30;4.38;;;14.90;99.90;;;;;;5070452;28;20016;-50
2023/01/01 09:53:05;;;;;;;7.72;4.45;;;14.90;99.90;;;;;;5080646;28;20039;-44
2023/01/01 09:55:40;;;;;;;9.05;4.22;;;14.90;99.90;;;;;;5088465;28;20060;-43
2023/01/01 09:58:10;;;;;;;10.27;4.30;;;14.80;99.90;;;;;;5089154;28;20027;-43
2023/01/01 10:00:40;;;;;;;6.73;3.63;;;14.80;99.90;;;;;;5088625;28;20397;-43
2023/01/01 10:03:26;;;;;;;9.45;4.15;;;14.80;99.90;;;;;;5070287;28;20055;-43
2023/01/01 10:06:06;;;;;;;13.25;4.60;;;14.80;99.90;;;;;;5056262;28;20093;-43
2023/01/01 10:08:40;;;;;;;9.85;4.00;;;14.80;99.90;;;;;;5068512;28;20031;-44
2023/01/01 10:11:24;;;;;;;10.32;4.82;;;14.80;99.90;;;;;;5049706;28;20032;-43
2023/01/01 10:13:51;;;;;;;8.82;4.80;;;14.80;99.90;;;;;;5068128;28;20515;-43
2023/01/01 10:16:32;;;;;;;8.60;4.20;;;14.70;99.90;;;;;;5071881;28;20024;-43
2023/01/01 10:19:06;;;;;;;8.68;4.13;;;14.70;99.90;;;;;;5077860;28;20021;-43
2023/01/01 10:21:36;;;;;;;8.90;4.35;;;14.60;99.90;;;;;;5077581;28;20043;-42
2023/01/01 10:24:25;;;;;;;11.20;4.43;;;14.60;99.90;;;;;;5087705;28;20063;-43
2023/01/01 10:26:52;;;;;;;8.48;4.53;;;14.60;99.90;;;;;;5061841;28;20024;-43
2023/01/01 10:29:25;;;;;;;6.93;4.00;;;14.60;99.90;;;;;;5053268;28;20048;-42
2023/01/01 10:31:56;;;;;;;8.38;4.55;;;14.60;99.90;;;;;;5073272;28;20020;-44
2023/01/01 10:34:27;;;;;;;10.43;4.38;;;14.60;99.90;;;;;;5072430;28;20324;-44
2023/01/01 10:36:56;;;;;;;8.80;4.05;;;14.60;99.90;;;;;;5084137;28;20020;-44
2023/01/01 10:39:22;;;;;;;7.40;4.70;;;14.60;99.90;;;;;;5073812;28;20890;-43
2023/01/01 10:41:49;;;;;;;12.32;4.82;;;14.50;99.90;;;;;;5071073;28;20033;-44
2023/01/01 10:44:27;;;;;;;6.82;4.47;;;14.50;99.90;;;;;;5074864;28;20676;-44
2023/01/01 10:46:58;;;;;;;7.60;4.30;;;14.40;99.90;;;;;;5071092;28;20020;-44
2023/01/01 10:49:24;;;;;;;7.18;4.57;;;14.40;99.90;;;;;;5071510;28;20107;-45
2023/01/01 10:51:52;;;;;;;7.32;4.30;;;14.30;99.90;;;;;;5073526;28;20092;-44
2023/01/01 10:54:38;;;;;;;7.20;4.55;;;14.30;99.90;;;;;;5081110;28;20036;-44
2023/01/01 10:57:26;;;;;;;9.20;4.50;;;14.30;99.90;;;;;;5078559;28;20383;-44
2023/01/01 10:59:52;;;;;;;9.55;4.47;;;14.30;99.90;;;;;;5081809;28;20047;-44
2023/01/01 11:02:18;;;;;;;8.52;4.93;;;14.20;99.90;;;;;;5061136;28;20574;-44
2023/01/01 11:04:44;;;;;;;9.93;4.72;;;14.20;99.90;;;;;;5088796;28;20054;-45
2023/01/01 11:07:25;;;;;;;7.18;4.03;;;14.10;99.90;;;;;;5078164;28;20046;-44
2023/01/01 11:10:02;;;;;;;10.65;3.92;;;14.20;99.90;;;;;;5080584;28;20016;-43
2023/01/01 11:12:36;;;;;;;7.78;3.58;;;14.20;99.90;;;;;;5070494;28;20419;-43
2023/01/01 11:15:04;;;;;;;4.57;3.03;;;14.20;99.90;;;;;;5071099;28;20029;-43
2023/01/01 11:17:33;;;;;;;6.65;3.10;;;14.20;99.90;;;;;;5087588;28;20024;-43
2023/01/01 11:20:00;;;;;;;8.70;2.45;;;14.10;99.90;;;;;;5091238;28;20084;-42
2023/01/01 11:22:40;;;;;;;9.20;2.50;;;14.10;99.90;;;;;;5080095;28;20050;-41
2023/01/01 11:25:27;;;;;;;5.07;2.03;;;14.00;99.90;;;;;;5070943;28;20328;-43
2023/01/01 11:28:18;;;;;;;3.45;1.83;;;13.90;99.90;;;;;;5072842;28;20025;-43
2023/01/01 11:31:00;;;;;;;7.22;2.30;;;13.80;99.90;;;;;;5071140;28;20028;-42
2023/01/01 11:33:27;;;;;;;6.70;2.38;;;13.70;99.90;;;;;;5071798;28;20020;-42
2023/01/01 11:35:55;;;;;;;7.97;2.47;;;13.60;99.90;;;;;;5079080;28;20065;-41
2023/01/01 11:38:23;;;;;;;5.68;1.90;;;13.50;99.90;;;;;;5071845;28;20021;-41
2023/01/01 11:40:52;;;;;;;11.27;2.38;;;13.40;99.90;;;;;;5082148;28;20120;-41
2023/01/01 11:43:23;;;;;;;5.57;2.72;;;13.40;99.90;;;;;;5072906;28;20023;-41
2023/01/01 11:45:52;;;;;;;8.73;2.30;;;13.40;99.90;;;;;;5069953;28;20027;-42
2023/01/01 11:48:31;;;;;;;6.55;2.58;;;13.40;99.90;;;;;;5070180;28;20013;-42
2023/01/01 11:51:04;;;;;;;6.63;2.47;;;13.50;99.90;;;;;;5069651;28;20016;-42
2023/01/01 11:53:33;;;;;;;6.13;2.08;;;13.50;99.90;;;;;;5076991;28;20021;-43
2023/01/01 11:56:15;;;;;;;7.68;2.67;;;13.50;99.90;;;;;;5068213;28;20046;-43
2023/01/01 11:58:47;;;;;;;6.63;2.10;;;13.50;99.90;;;;;;5071370;28;20067;-50
2023/01/01 12:01:27;;;;;;;3.05;2.17;;;13.40;99.90;;;;;;5069735;28;20039;-43
2023/01/01 12:04:00;;;;;;;6.70;2.17;;;13.40;99.90;;;;;;5076555;28;20376;-41
2023/01/01 12:06:58;;;;;;;15.05;3.15;;;13.40;99.90;;;;;;5069527;28;20505;-41
2023/01/01 12:09:43;;;;;;;6.63;2.70;;;13.30;99.90;;;;;;5057371;28;20032;-42
2023/01/01 12:12:17;;;;;;;4.82;2.22;;;13.30;99.90;;;;;;5088609;28;20036;-43
2023/01/01 12:14:51;;;;;;;8.30;2.78;;;13.20;99.90;;;;;;5083711;28;20024;-44
2023/01/01 12:17:36;;;;;;;7.03;2.30;;;13.20;99.90;;;;;;5069025;28;20016;-44
2023/01/01 12:20:23;;;;;;;5.93;2.78;;;13.20;99.90;;;;;;5074785;28;20047;-43
2023/01/01 12:22:49;;;;;;;3.85;2.30;;;13.20;99.90;;;;;;5088713;28;20193;-44
2023/01/01 12:25:18;;;;;;;3.08;2.00;;;13.10;99.90;;;;;;5089403;28;20534;-44
2023/01/01 12:28:11;;;;;;;7.57;2.30;;;13.10;99.90;;;;;;5068992;28;20115;-43
2023/01/01 12:30:52;;;;;;;6.80;2.00;;;13.10;99.90;;;;;;5070015;28;20394;-42
2023/01/01 12:33:32;;;;;;;2.53;1.67;;;13.10;99.90;;;;;;5068084;28;20021;-43
2023/01/01 12:36:02;;;;;;;4.07;2.28;;;13.10;99.90;;;;;;5064980;28;20466;-44
2023/01/01 12:38:39;;;;;;;3.17;2.20;;;13.00;99.90;;;;;;5081147;28;20557;-43
2023/01/01 12:41:17;;;;;;;4.00;2.17;;;13.00;99.90;;;;;;5078167;28;20382;-43
2023/01/01 12:43:49;;;;;;;2.55;1.85;;;12.90;99.90;;;;;;5063731;28;20056;-43
2023/01/01 12:46:29;;;;;;;4.50;2.03;;;12.90;99.90;;;;;;5076980;28;20039;-43
2023/01/01 12:49:04;;;;;;;5.45;1.73;;;12.90;99.90;;;;;;5081618;28;20013;-43
2023/01/01 12:52:07;;;;;;;3.97;1.80;;;12.90;99.90;;;;;;5068437;28;20436;-42
2023/01/01 12:55:26;;;;;;;2.05;1.67;;;12.90;99.90;;;;;;5068490;28;20071;-44
2023/01/01 12:58:00;;;;;;;4.63;1.50;;;12.90;99.90;;;;;;5026477;28;20113;-44
2023/01/01 13:00:27;;;;;;;3.85;1.50;;;12.90;99.90;;;;;;5026260;28;20105;-44
2023/01/01 13:03:02;;;;;;;3.60;1.45;;;12.90;99.90;;;;;;5049947;28;20051;-43